createdAt,value
2023-04-29T00:02:49.130Z,19.50
2023-04-29T00:05:51.882Z,18.30
2023-04-29T00:08:54.210Z,17.30
2023-04-29T00:11:56.656Z,15.88
2023-04-29T00:14:59.548Z,14.65
2023-04-29T00:18:02.020Z,16.87
2023-04-29T00:21:05.990Z,17.08
2023-04-29T00:24:08.518Z,14.93
2023-04-29T00:27:11.918Z,16.17
2023-04-29T00:30:14.400Z,14.65
2023-04-29T00:33:16.674Z,17.30
2023-04-29T00:36:19.136Z,16.10
2023-04-29T00:39:21.308Z,14.98
2023-04-29T00:42:24.106Z,16.52
2023-04-29T00:45:27.563Z,17.75
2023-04-29T00:48:30.103Z,18.17
2023-04-29T00:51:33.672Z,16.92
2023-04-29T00:54:37.365Z,16.40
2023-04-29T00:57:39.586Z,13.07
2023-04-29T01:00:44.005Z,13.43
2023-04-29T01:03:46.410Z,12.20
2023-04-29T01:07:13.620Z,13.38
2023-04-29T01:10:23.988Z,14.43
2023-04-29T01:13:37.802Z,12.32
2023-04-29T01:16:47.242Z,15.00
2023-04-29T01:19:55.971Z,12.95
2023-04-29T01:22:58.457Z,10.95
2023-04-29T01:26:01.356Z,12.63
2023-04-29T01:29:28.684Z,13.60
2023-04-29T01:32:52.423Z,10.52
2023-04-29T01:36:13.433Z,12.23
2023-04-29T01:39:32.852Z,10.85
2023-04-29T01:42:35.908Z,11.80
2023-04-29T01:45:42.155Z,9.85
2023-04-29T01:48:44.457Z,10.90
2023-04-29T01:51:46.873Z,10.40
2023-04-29T01:54:49.122Z,8.40
2023-04-29T01:57:51.955Z,9.05
2023-04-29T02:00:55.548Z,10.50
2023-04-29T02:03:58.889Z,9.55
2023-04-29T02:07:01.630Z,10.20
2023-04-29T02:10:04.471Z,8.98
2023-04-29T02:13:08.505Z,8.20
2023-04-29T02:16:13.442Z,9.18
2023-04-29T02:19:17.026Z,7.90
2023-04-29T02:22:19.536Z,7.20
2023-04-29T02:25:21.740Z,6.25
2023-04-29T02:28:24.208Z,8.45
2023-04-29T02:31:26.435Z,7.03
2023-04-29T02:34:29.281Z,7.85
2023-04-29T02:37:32.056Z,7.05
2023-04-29T02:40:34.566Z,7.37
2023-04-29T02:43:36.748Z,6.82
2023-04-29T02:46:41.500Z,6.70
2023-04-29T02:49:43.750Z,10.25
2023-04-29T02:52:47.601Z,9.27
2023-04-29T02:55:49.730Z,5.62
2023-04-29T02:58:52.192Z,6.25
2023-04-29T03:01:54.615Z,6.87
2023-04-29T03:04:57.063Z,6.72
2023-04-29T03:07:59.262Z,7.70
2023-04-29T03:11:02.760Z,8.70
2023-04-29T03:14:05.151Z,8.73
2023-04-29T03:17:07.902Z,6.82
2023-04-29T03:20:10.933Z,9.73
2023-04-29T03:23:13.631Z,10.63
2023-04-29T03:26:15.894Z,8.32
2023-04-29T03:29:18.523Z,10.35
2023-04-29T03:32:20.664Z,7.32
2023-04-29T03:35:23.116Z,12.85
2023-04-29T03:38:26.182Z,7.10
2023-04-29T03:41:28.745Z,9.23
2023-04-29T03:44:31.332Z,8.32
2023-04-29T03:47:33.917Z,10.10
2023-04-29T03:50:37.330Z,9.00
2023-04-29T03:53:40.372Z,9.70
2023-04-29T03:56:43.415Z,9.15
2023-04-29T03:59:50.145Z,14.10
2023-04-29T04:02:53.068Z,9.00
2023-04-29T04:05:55.986Z,7.43
2023-04-29T04:08:58.409Z,12.32
2023-04-29T04:12:01.191Z,11.85
2023-04-29T04:15:04.266Z,14.85
2023-04-29T04:18:06.943Z,12.25
2023-04-29T04:21:10.514Z,14.55
2023-04-29T04:24:13.429Z,12.90
2023-04-29T04:27:15.819Z,12.68
2023-04-29T04:30:18.981Z,12.25
2023-04-29T04:33:21.200Z,11.80
2023-04-29T04:36:24.213Z,10.40
2023-04-29T04:39:26.396Z,12.25
2023-04-29T04:42:29.922Z,13.95
2023-04-29T04:45:32.454Z,10.88
2023-04-29T04:48:35.006Z,10.07
2023-04-29T04:51:47.346Z,11.63
2023-04-29T04:54:49.877Z,10.82
2023-04-29T04:57:56.399Z,10.57
2023-04-29T05:01:01.371Z,9.10
2023-04-29T05:04:03.849Z,9.05
2023-04-29T05:07:06.400Z,9.32
2023-04-29T05:10:10.069Z,11.43
2023-04-29T05:13:13.053Z,15.13
2023-04-29T05:16:17.346Z,11.15
2023-04-29T05:19:20.221Z,10.50
2023-04-29T05:22:22.629Z,13.38
2023-04-29T05:25:25.244Z,10.68
2023-04-29T05:28:28.464Z,10.57
2023-04-29T05:31:32.413Z,13.77
2023-04-29T05:34:36.523Z,19.67
2023-04-29T05:37:39.064Z,15.15
2023-04-29T05:40:41.603Z,12.10
2023-04-29T05:43:45.614Z,14.95
2023-04-29T05:46:48.880Z,16.30
2023-04-29T05:49:51.916Z,13.70
2023-04-29T05:52:56.384Z,17.48
2023-04-29T05:55:59.858Z,12.40
2023-04-29T05:59:02.200Z,11.25
2023-04-29T06:02:04.692Z,12.15
2023-04-29T06:05:08.301Z,13.45
2023-04-29T06:08:11.440Z,12.05
2023-04-29T06:11:16.586Z,7.85
2023-04-29T06:14:18.940Z,9.02
2023-04-29T06:17:21.646Z,10.35
2023-04-29T06:20:23.815Z,12.68
2023-04-29T06:23:26.570Z,10.57
2023-04-29T06:26:28.914Z,9.10
2023-04-29T06:29:31.656Z,9.13
2023-04-29T06:32:34.045Z,9.50
2023-04-29T06:35:40.096Z,9.95
2023-04-29T06:38:43.024Z,12.32
2023-04-29T06:41:46.664Z,10.38
2023-04-29T06:44:48.953Z,7.97
2023-04-29T06:47:54.445Z,11.98
2023-04-29T06:50:58.815Z,12.32
2023-04-29T06:54:01.718Z,8.18
2023-04-29T06:57:03.870Z,7.80
2023-04-29T07:00:06.895Z,8.73
2023-04-29T07:03:09.917Z,9.20
2023-04-29T07:06:12.647Z,9.75
2023-04-29T07:09:15.052Z,12.23
2023-04-29T07:12:17.538Z,17.15
2023-04-29T07:15:19.718Z,22.30
2023-04-29T07:18:22.173Z,16.85
2023-04-29T07:21:24.354Z,16.45
2023-04-29T07:24:26.822Z,14.43
2023-04-29T07:27:29.540Z,13.18
2023-04-29T07:30:33.279Z,15.50
2023-04-29T07:33:35.965Z,13.00
2023-04-29T07:36:38.423Z,12.00
2023-04-29T07:39:42.633Z,11.98
2023-04-29T07:42:45.745Z,8.23
2023-04-29T07:45:48.611Z,8.68
2023-04-29T07:48:51.909Z,11.12
2023-04-29T07:51:54.232Z,11.20
2023-04-29T07:54:56.667Z,8.98
2023-04-29T07:58:00.535Z,7.80
2023-04-29T08:01:12.080Z,9.15
2023-04-29T08:04:15.844Z,6.93
2023-04-29T08:07:18.428Z,11.32
2023-04-29T08:10:22.493Z,8.88
2023-04-29T08:13:25.817Z,9.98
2023-04-29T08:16:28.376Z,11.65
2023-04-29T08:19:31.188Z,8.90
2023-04-29T08:22:33.922Z,9.93
2023-04-29T08:25:36.285Z,11.10
2023-04-29T08:28:39.321Z,10.27
2023-04-29T08:31:41.595Z,8.52
2023-04-29T08:34:44.553Z,9.98
2023-04-29T08:37:47.626Z,11.55
2023-04-29T08:40:50.050Z,7.62
2023-04-29T08:43:52.302Z,7.65
2023-04-29T08:46:55.929Z,9.40
2023-04-29T08:50:04.190Z,12.85
2023-04-29T08:53:10.465Z,9.43
2023-04-29T08:56:20.503Z,13.02
2023-04-29T08:59:23.799Z,8.15
2023-04-29T09:02:26.352Z,10.40
2023-04-29T09:05:29.172Z,12.30
2023-04-29T09:08:33.438Z,8.23
2023-04-29T09:11:37.149Z,9.65
2023-04-29T09:14:39.308Z,8.02
2023-04-29T09:17:46.709Z,9.73
2023-04-29T09:20:48.939Z,7.95
2023-04-29T09:23:53.803Z,7.93
2023-04-29T09:26:56.580Z,6.85
2023-04-29T09:30:02.143Z,9.88
2023-04-29T09:33:09.054Z,7.55
2023-04-29T09:36:11.602Z,7.68
2023-04-29T09:39:18.985Z,10.20
2023-04-29T09:42:21.502Z,6.68
2023-04-29T09:45:37.200Z,6.40
2023-04-29T09:48:39.624Z,8.52
2023-04-29T09:51:53.197Z,6.35
2023-04-29T09:55:05.093Z,7.53
2023-04-29T09:58:07.211Z,7.12
2023-04-29T10:01:10.361Z,10.48
2023-04-29T10:04:15.483Z,7.18
2023-04-29T10:07:19.102Z,8.25
2023-04-29T10:10:23.159Z,7.07
2023-04-29T10:13:26.812Z,9.45
2023-04-29T10:16:31.476Z,10.93
2023-04-29T10:20:06.477Z,7.57
2023-04-29T10:23:11.197Z,8.43
2023-04-29T10:26:15.231Z,6.40
2023-04-29T10:29:18.897Z,7.57
2023-04-29T10:32:22.290Z,7.47
2023-04-29T10:35:25.645Z,9.43
2023-04-29T10:38:42.511Z,8.63
2023-04-29T10:41:47.075Z,7.47
2023-04-29T10:45:23.653Z,6.28
2023-04-29T10:48:26.631Z,10.95
2023-04-29T10:51:47.037Z,10.40
2023-04-29T10:55:04.992Z,6.72
2023-04-29T10:58:39.259Z,6.20
2023-04-29T11:01:47.623Z,4.93
2023-04-29T11:05:12.638Z,8.10
2023-04-29T11:08:24.525Z,6.70
2023-04-29T11:11:28.339Z,6.32
2023-04-29T11:14:42.033Z,5.10
2023-04-29T11:17:46.932Z,10.27
2023-04-29T11:21:04.435Z,5.57
2023-04-29T11:24:07.086Z,4.93
2023-04-29T11:27:09.880Z,7.35
2023-04-29T11:30:13.418Z,5.65
2023-04-29T11:33:15.990Z,5.40
2023-04-29T11:36:18.393Z,7.70
2023-04-29T11:39:21.105Z,8.32
2023-04-29T11:42:23.755Z,8.27
2023-04-29T11:45:26.870Z,4.95
2023-04-29T11:48:30.319Z,5.25
2023-04-29T11:51:32.932Z,6.22
2023-04-29T11:54:35.270Z,10.75
2023-04-29T11:57:39.216Z,6.60
2023-04-29T12:00:41.515Z,6.53
2023-04-29T12:03:46.427Z,7.25
2023-04-29T12:06:52.717Z,7.00
2023-04-29T12:09:56.642Z,6.82
2023-04-29T12:12:58.947Z,8.07
2023-04-29T12:16:02.185Z,5.25
2023-04-29T12:19:05.160Z,8.57
2023-04-29T12:22:08.425Z,7.65
2023-04-29T12:25:10.849Z,6.37
2023-04-29T12:28:13.943Z,7.93
2023-04-29T12:31:16.873Z,8.25
2023-04-29T12:34:33.903Z,6.82
2023-04-29T12:37:36.298Z,5.97
2023-04-29T12:40:38.851Z,6.50
2023-04-29T12:43:42.346Z,6.10
2023-04-29T12:46:44.806Z,7.78
2023-04-29T12:49:48.280Z,4.93
2023-04-29T12:52:51.175Z,4.82
2023-04-29T12:55:53.977Z,4.57
2023-04-29T12:58:57.047Z,6.40
2023-04-29T13:01:59.824Z,4.72
2023-04-29T13:05:02.634Z,6.03
2023-04-29T13:08:06.814Z,5.45
2023-04-29T13:11:09.246Z,10.63
2023-04-29T13:14:11.441Z,6.03
2023-04-29T13:17:14.042Z,4.95
2023-04-29T13:20:16.510Z,8.80
2023-04-29T13:23:19.005Z,5.32
2023-04-29T13:26:21.342Z,5.95
2023-04-29T13:29:24.103Z,6.57
2023-04-29T13:32:26.363Z,9.05
2023-04-29T13:35:29.736Z,5.47
2023-04-29T13:38:32.342Z,5.57
2023-04-29T13:41:35.450Z,6.65
2023-04-29T13:44:51.809Z,4.97
2023-04-29T13:48:07.306Z,5.82
2023-04-29T14:00:55.046Z,4.57
2023-04-29T14:03:49.997Z,6.45
2023-04-29T14:06:52.768Z,5.93
2023-04-29T14:09:55.287Z,5.30
2023-04-29T14:12:57.423Z,6.30
2023-04-29T14:16:01.985Z,4.75
2023-04-29T14:19:04.447Z,5.95
2023-04-29T14:22:06.934Z,4.28
2023-04-29T14:25:09.573Z,4.85
2023-04-29T14:28:12.673Z,7.32
2023-04-29T14:31:15.193Z,4.37
2023-04-29T14:34:19.462Z,6.97
2023-04-29T14:37:21.659Z,4.53
2023-04-29T14:40:24.306Z,5.47
2023-04-29T14:43:26.469Z,4.60
2023-04-29T14:46:29.587Z,6.22
2023-04-29T14:49:31.975Z,4.28
2023-04-29T14:52:34.368Z,6.18
2023-04-29T14:55:36.513Z,3.55
2023-04-29T14:58:39.286Z,3.20
2023-04-29T15:01:41.510Z,4.60
2023-04-29T15:04:46.030Z,6.43
2023-04-29T15:07:48.238Z,5.47
2023-04-29T15:10:50.888Z,4.18
2023-04-29T15:13:53.046Z,11.63
2023-04-29T15:16:55.528Z,4.93
2023-04-29T15:19:57.655Z,6.40
2023-04-29T15:23:00.049Z,5.25
2023-04-29T15:26:02.200Z,4.37
2023-04-29T15:29:04.620Z,8.15
2023-04-29T15:32:06.952Z,6.05
2023-04-29T15:35:09.710Z,3.95
2023-04-29T15:38:12.312Z,5.72
2023-04-29T15:41:14.761Z,7.03
2023-04-29T15:44:16.923Z,4.95
2023-04-29T15:47:19.384Z,5.78
2023-04-29T15:50:21.704Z,8.00
2023-04-29T15:53:24.120Z,5.03
2023-04-29T15:56:26.327Z,5.70
2023-04-29T15:59:29.461Z,4.62
2023-04-29T16:02:31.884Z,5.20
2023-04-29T16:05:34.533Z,4.40
2023-04-29T16:08:36.712Z,7.50
2023-04-29T16:11:39.225Z,5.57
2023-04-29T16:14:41.402Z,6.30
2023-04-29T16:17:43.956Z,6.78
2023-04-29T16:20:46.187Z,7.00
2023-04-29T16:23:48.752Z,9.25
2023-04-29T16:26:51.011Z,5.72
2023-04-29T16:29:55.555Z,4.62
2023-04-29T16:32:58.059Z,7.25
2023-04-29T16:36:00.556Z,5.72
2023-04-29T16:39:04.634Z,4.65
2023-04-29T16:42:07.621Z,5.93
2023-04-29T16:45:10.276Z,6.03
2023-04-29T16:48:12.852Z,5.37
2023-04-29T16:51:15.009Z,6.68
2023-04-29T16:54:17.775Z,4.03
2023-04-29T16:57:21.335Z,5.78
2023-04-29T17:00:24.300Z,5.93
2023-04-29T17:03:26.528Z,6.68
2023-04-29T17:06:29.039Z,7.05
2023-04-29T17:09:31.261Z,8.13
2023-04-29T17:12:33.768Z,4.60
2023-04-29T17:15:36.065Z,5.03
2023-04-29T17:18:38.558Z,4.45
2023-04-29T17:21:40.759Z,4.85
2023-04-29T17:24:47.416Z,9.65
2023-04-29T17:27:49.576Z,7.00
2023-04-29T17:30:55.681Z,12.85
2023-04-29T17:34:05.481Z,4.72
2023-04-29T17:37:08.279Z,10.48
2023-04-29T17:40:10.872Z,6.12
2023-04-29T17:43:13.316Z,5.65
2023-04-29T17:46:15.643Z,8.00
2023-04-29T17:49:18.186Z,6.70
2023-04-29T17:52:21.358Z,9.25
2023-04-29T17:55:24.028Z,8.57
2023-04-29T17:58:28.868Z,7.45
2023-04-29T18:01:32.634Z,6.53
2023-04-29T18:04:35.249Z,6.18
2023-04-29T18:07:37.388Z,8.88
2023-04-29T18:10:39.819Z,7.60
2023-04-29T18:13:42.103Z,7.75
2023-04-29T18:16:44.770Z,6.22
2023-04-29T18:19:49.193Z,11.55
2023-04-29T18:22:51.911Z,7.18
2023-04-29T18:25:54.100Z,7.97
2023-04-29T18:28:56.710Z,5.97
2023-04-29T18:31:58.991Z,7.70
2023-04-29T18:35:02.021Z,7.72
2023-04-29T18:38:04.340Z,7.62
2023-04-29T18:41:08.461Z,8.20
2023-04-29T18:44:10.962Z,10.88
2023-04-29T18:47:13.421Z,9.25
2023-04-29T18:50:15.567Z,7.07
2023-04-29T18:53:18.313Z,6.62
2023-04-29T18:56:21.355Z,6.65
2023-04-29T18:59:23.809Z,8.38
2023-04-29T19:02:25.984Z,9.75
2023-04-29T19:05:28.461Z,9.05
2023-04-29T19:08:30.718Z,6.05
2023-04-29T19:11:33.248Z,8.40
2023-04-29T19:14:35.499Z,6.03
2023-04-29T19:17:37.996Z,7.07
2023-04-29T19:20:41.037Z,6.03
2023-04-29T19:23:43.700Z,6.70
2023-04-29T19:26:45.914Z,6.30
2023-04-29T19:29:48.763Z,6.95
2023-04-29T19:32:50.966Z,8.02
2023-04-29T19:35:53.518Z,7.57
2023-04-29T19:38:55.728Z,9.48
2023-04-29T19:41:58.286Z,9.73
2023-04-29T19:45:00.561Z,10.43
2023-04-29T19:48:03.476Z,7.25
2023-04-29T19:51:09.317Z,7.68
2023-04-29T19:54:14.940Z,7.95
2023-04-29T19:57:17.037Z,8.68
2023-04-29T20:00:19.563Z,9.55
2023-04-29T20:03:22.065Z,6.82
2023-04-29T20:06:25.695Z,7.43
2023-04-29T20:09:28.146Z,7.45
2023-04-29T20:12:30.461Z,6.55
2023-04-29T20:15:32.903Z,8.82
2023-04-29T20:18:36.117Z,8.20
2023-04-29T20:21:40.240Z,7.15
2023-04-29T20:24:42.463Z,9.85
2023-04-29T20:27:44.915Z,6.82
2023-04-29T20:30:47.006Z,10.63
2023-04-29T20:33:49.503Z,8.55
2023-04-29T20:36:51.761Z,8.23
2023-04-29T20:39:54.362Z,7.18
2023-04-29T20:42:57.625Z,11.50
2023-04-29T20:46:00.724Z,8.93
2023-04-29T20:49:04.474Z,8.02
2023-04-29T20:52:07.138Z,7.50
2023-04-29T20:55:09.424Z,8.30
2023-04-29T20:58:12.087Z,10.63
2023-04-29T21:01:14.410Z,7.53
2023-04-29T21:04:16.996Z,8.25
2023-04-29T21:07:19.239Z,7.90
2023-04-29T21:10:21.817Z,7.75
2023-04-29T21:13:24.032Z,9.45
2023-04-29T21:16:26.716Z,7.22
2023-04-29T21:19:29.019Z,8.20
2023-04-29T21:22:31.600Z,6.93
2023-04-29T21:25:33.941Z,7.87
2023-04-29T21:28:36.447Z,9.60
2023-04-29T21:31:38.686Z,6.60
2023-04-29T21:34:41.183Z,6.55
2023-04-29T21:37:43.305Z,9.65
2023-04-29T21:40:47.756Z,9.02
2023-04-29T21:43:50.482Z,9.25
2023-04-29T21:46:53.107Z,9.93
2023-04-29T21:49:56.224Z,9.80
2023-04-29T21:52:58.900Z,8.73
2023-04-29T21:56:01.057Z,8.13
2023-04-29T21:59:03.567Z,7.03
2023-04-29T22:02:21.774Z,7.15
2023-04-29T22:05:24.740Z,8.05
2023-04-29T22:08:26.936Z,11.38
2023-04-29T22:11:29.494Z,8.52
2023-04-29T22:14:31.614Z,8.68
2023-04-29T22:17:34.109Z,11.20
2023-04-29T22:20:36.338Z,8.40
2023-04-29T22:23:38.805Z,10.45
2023-04-29T22:26:40.992Z,11.12
2023-04-29T22:29:43.424Z,11.20
2023-04-29T22:32:45.672Z,8.75
2023-04-29T22:35:48.082Z,8.68
2023-04-29T22:38:50.242Z,7.50
2023-04-29T22:41:52.697Z,8.88
2023-04-29T22:44:54.810Z,7.20
2023-04-29T22:47:57.275Z,10.35
2023-04-29T22:50:59.681Z,8.70
2023-04-29T22:54:02.096Z,12.13
2023-04-29T22:57:04.357Z,10.25
2023-04-29T23:00:07.397Z,9.43
2023-04-29T23:03:09.606Z,9.40
2023-04-29T23:06:12.376Z,9.65
2023-04-29T23:09:14.654Z,11.95
2023-04-29T23:12:18.161Z,9.00
2023-04-29T23:15:20.262Z,11.18
2023-04-29T23:18:22.677Z,9.70
2023-04-29T23:21:27.062Z,8.25
2023-04-29T23:24:29.506Z,10.23
2023-04-29T23:27:31.695Z,11.52
2023-04-29T23:30:34.677Z,13.38
2023-04-29T23:33:36.861Z,12.40
2023-04-29T23:36:39.385Z,11.77
2023-04-29T23:39:41.545Z,11.45
2023-04-29T23:42:44.097Z,9.55
2023-04-29T23:45:47.233Z,11.07
2023-04-29T23:48:49.777Z,11.93
2023-04-29T23:51:51.877Z,13.02
2023-04-29T23:54:54.294Z,10.10
2023-04-29T23:57:56.452Z,14.10
